Lynn Lake Airport
CYYL : now visible

Airfield :











YOU CAN JOIN US ON...

 
LOGIN :

Register | Disclaimer

   EN    FR    IT 

 









Legend :    VFR   Marginal VFR   IFR   Intensive IFR   Very Intensive IFR
Visi :
Ceiling :
>= 8 km
>= 3000ft
5 to 8 km
1000 to 3000 ft
1500m to 5 km
500 to 1000 ft
800 to 1500m
200 to 500 ft
< 800m
< 200 ft
Symbols :   Thunderstorms  Fog  Heavy snow  Heavy precipitations  Wind > 20 kt







- Airport Elevation : 1170 ft
- IATA code : YYL


CYYL - Lynn Lake

CURRENT METAR :
  • 260400Z AUTO 07003KT 9SM FEW049 15/14 A2971 RMK SLP071 DENSITY ALT 1700FT

EXPIRED METARs :
  • 260300Z AUTO 07004KT 9SM BKN050 17/14 A2971 RMK SLP070 DENSITY ALT 1800FT
  • 260200Z AUTO 10004KT 9SM BKN048 17/15 A2970 RMK SLP067 DENSITY ALT 1800FT

TAF TAF CYYL
Valid from the 26 at 01:00 until the 26 at 13:00 UTC


260038Z 2601/2613 06005KT P6SM FEW030 SCT100 BKN220
TEMPO 2601/2606 P6SM VCTS BKN030CB BKN100
FM260600 06005KT P6SM SCT020 BKN040
TEMPO 2606/2613 2SM BR BKN020 BKN040
PROB30 2606/2613 1/2SM FG VV002 RMK FCST BASED ON AUTO OBS. NXT FCST BY 260700Z
No reported NOTAMs for that airfield.



MET'MAP, your aeronautical weather chart ! - Copyright ORBIFLY December 2007 - Disclaimer

ORBIFLY MET'MAP TEAM :

Programming & Development : Alexandra Zaïnal
Concept & Development : Baudouin d'Aumeries
Co-Development & Prog : Marc-Olivier Méhu
Technical & hardware support : Manuel Goepfert

Contact : metmap@orbifly.com




SOURCES & CREDITS :

   NOAA       Earth
Advisory